Time;durP1;ratioP1;P1;durP2;ratioP2;P2;SDS_P1;SDS_P2;PMS_P1;PMS_P2;Temp;Humidity;BMP_temperature;BMP_pressure;BME280_temperature;BME280_humidity;BME280_pressure;Samples;Min_cycle;Max_cycle;Signal;HPM_P1;HPM_P2
2023/08/02 00:03:04;;;;;;;5.20;4.50;;;;;;;16.65;80.33;97437.30;435225;1254;107616;-42
2023/08/02 00:23:17;;;;;;;9.00;4.90;;;;;;;16.70;81.05;97454.45;435077;1254;108555;-41
2023/08/02 00:33:24;;;;;;;8.20;5.40;;;;;;;16.76;81.23;97457.40;435144;1258;99381;-40
2023/08/02 00:43:30;;;;;;;6.80;4.70;;;;;;;16.84;81.30;97457.85;435254;1257;110629;-42
2023/08/02 01:03:45;;;;;;;7.50;5.10;;;;;;;16.89;81.43;97460.15;435161;1254;99243;-40
2023/08/02 01:13:52;;;;;;;9.40;5.70;;;;;;;16.80;81.40;97471.52;435127;1258;108086;-41
2023/08/02 01:34:06;;;;;;;6.40;5.30;;;;;;;16.49;81.62;97474.77;435839;1256;112199;-42
2023/08/02 01:44:12;;;;;;;7.60;6.10;;;;;;;16.38;81.97;97468.27;435217;1254;107874;-40
2023/08/02 01:54:19;;;;;;;7.60;5.80;;;;;;;16.35;82.14;97472.82;435197;1254;99199;-43
2023/08/02 02:04:26;;;;;;;8.40;5.70;;;;;;;16.35;82.23;97485.73;435251;1256;107767;-42
2023/08/02 02:14:34;;;;;;;6.80;5.60;;;;;;;16.40;82.16;97495.02;435056;1265;99227;-41
2023/08/02 02:24:41;;;;;;;7.20;5.60;;;;;;;16.41;81.94;97501.30;435228;1257;111484;-43
2023/08/02 02:34:48;;;;;;;10.80;6.10;;;;;;;16.28;81.86;97506.10;434997;1257;109319;-42
2023/08/02 02:44:55;;;;;;;5.20;4.70;;;;;;;16.17;81.97;97512.17;435125;1266;99314;-42
2023/08/02 02:55:02;;;;;;;6.70;5.10;;;;;;;16.03;82.03;97514.94;435137;1266;107866;-42
2023/08/02 03:05:08;;;;;;;6.60;5.20;;;;;;;15.91;82.02;97522.56;435172;1258;99222;-42
2023/08/02 03:25:22;;;;;;;6.40;4.80;;;;;;;15.60;82.02;97532.87;435019;1257;107358;-42
2023/08/02 03:45:35;;;;;;;7.60;4.90;;;;;;;15.94;82.19;97534.92;435139;1254;108043;-43
2023/08/02 03:55:42;;;;;;;5.60;4.90;;;;;;;17.35;81.72;97539.88;435245;1254;99231;-43
2023/08/02 04:05:47;;;;;;;7.40;5.30;;;;;;;18.99;80.62;97542.58;435031;1256;112094;-42
2023/08/02 04:15:55;;;;;;;7.50;5.40;;;;;;;20.22;78.71;97540.13;435116;1254;108629;-43
2023/08/02 04:36:06;;;;;;;6.20;4.90;;;;;;;22.06;76.06;97557.55;435125;1257;106432;-42
2023/08/02 04:46:13;;;;;;;4.50;3.70;;;;;;;22.64;74.39;97559.74;435181;1264;98552;-42
2023/08/02 05:06:25;;;;;;;4.90;3.70;;;;;;;23.22;72.08;97559.66;434992;1254;108081;-43
2023/08/02 05:16:31;;;;;;;4.60;3.50;;;;;;;23.53;70.86;97557.73;435229;1254;98014;-41
2023/08/02 05:26:38;;;;;;;8.90;3.50;;;;;;;23.80;69.84;97566.36;435194;1256;107758;-43
2023/08/02 05:36:44;;;;;;;8.70;3.30;;;;;;;23.85;68.77;97568.64;435117;1254;99336;-42
2023/08/02 05:46:51;;;;;;;6.00;3.00;;;;;;;24.30;68.38;97570.38;435389;1255;111958;-42
2023/08/02 05:56:57;;;;;;;3.50;2.60;;;;;;;24.44;66.58;97578.41;435078;1254;109088;-41
2023/08/02 06:07:03;;;;;;;6.60;2.20;;;;;;;24.52;65.70;97587.80;435262;1256;97916;-42
2023/08/02 06:17:09;;;;;;;3.20;2.70;;;;;;;24.67;64.02;97595.06;435042;1257;108166;-44
2023/08/02 06:27:16;;;;;;;2.90;2.50;;;;;;;24.79;63.88;97595.14;436972;1257;98576;-43
2023/08/02 06:37:23;;;;;;;6.20;2.10;;;;;;;25.29;62.35;97606.84;435612;1254;112086;-42
2023/08/02 06:47:31;;;;;;;3.10;2.10;;;;;;;25.21;61.62;97614.70;435205;1254;107667;-42
2023/08/02 06:57:37;;;;;;;3.60;1.90;;;;;;;25.69;61.04;97619.60;435538;1254;99251;-42
2023/08/02 07:07:44;;;;;;;3.20;2.20;;;;;;;25.49;59.90;97617.27;435457;1254;108633;-41
2023/08/02 07:28:00;;;;;;;5.20;2.80;;;;;;;25.89;58.67;97625.70;435480;1254;111177;-42
2023/08/02 07:38:07;;;;;;;5.00;2.00;;;;;;;26.19;58.01;97633.92;435516;1253;107894;-41
2023/08/02 07:48:14;;;;;;;6.10;2.20;;;;;;;25.88;56.64;97630.52;435342;1256;98497;-42
2023/08/02 07:58:19;;;;;;;4.00;2.30;;;;;;;25.10;56.44;97632.35;435505;1256;107542;-41
2023/08/02 08:08:25;;;;;;;3.20;1.40;;;;;;;25.58;56.49;97629.63;435437;1257;99317;-42
2023/08/02 08:28:39;;;;;;;5.70;1.70;;;;;;;25.49;54.48;97599.11;435560;1252;108767;-42
2023/08/02 08:48:54;;;;;;;1.80;1.60;;;;;;;24.74;54.05;97612.33;435478;1256;108989;-41
2023/08/02 08:59:01;;;;;;;;;;;;;;;25.15;54.00;97598.30;435660;1254;97978;-42
2023/08/02 09:09:09;;;;;;;2.50;1.70;;;;;;;25.29;53.22;97600.81;435574;1253;111426;-41
2023/08/02 09:29:42;;;;;;;3.60;1.90;;;;;;;25.43;53.43;97597.18;435717;1253;98839;-42
2023/08/02 09:39:49;;;;;;;3.10;1.90;;;;;;;25.66;52.01;97585.64;435441;1257;109427;-42
2023/08/02 09:50:16;;;;;;;3.30;2.00;;;;;;;24.99;52.18;97587.16;435391;1254;99252;-41
2023/08/02 10:10:37;;;;;;;4.50;1.90;;;;;;;26.23;51.06;97572.15;435689;1254;108582;-42
2023/08/02 10:20:44;;;;;;;3.30;1.70;;;;;;;26.34;49.81;97557.66;435445;1253;99260;-41
2023/08/02 10:30:50;;;;;;;;;;;;;;;26.14;48.61;97538.98;435844;1256;107641;-40
2023/08/02 10:41:04;;;;;;;6.10;1.40;;;;;;;25.82;48.25;97534.70;435751;1253;98833;-41
2023/08/02 10:51:25;;;;;;;2.40;1.50;;;;;;;25.69;48.28;97532.75;435412;1254;113459;-41
2023/08/02 11:01:33;;;;;;;2.20;1.40;;;;;;;26.01;48.87;97532.39;435641;1252;108653;-42
2023/08/02 11:21:53;;;;;;;1.70;1.40;;;;;;;25.47;48.73;97525.93;435394;1257;108434;-40
2023/08/02 11:42:13;;;;;;;3.80;1.90;;;;;;;26.36;48.12;97507.75;435516;1253;112609;-40
2023/08/02 11:52:26;;;;;;;1.70;1.20;;;;;;;26.34;46.80;97502.83;435294;1252;107769;-43
2023/08/02 12:02:34;;;;;;;1.20;1.10;;;;;;;25.87;47.23;97494.19;435438;1254;99400;-42
2023/08/02 12:12:42;;;;;;;1.30;1.10;;;;;;;25.94;46.78;97488.14;435550;1253;400895;-41
2023/08/02 12:22:50;;;;;;;2.70;1.10;;;;;;;26.17;47.05;97487.11;435281;1256;99221;-41
2023/08/02 12:43:03;;;;;;;3.20;1.00;;;;;;;25.93;46.99;97478.39;435376;1256;107817;-41
2023/08/02 13:03:16;;;;;;;1.50;1.20;;;;;;;25.45;46.58;97485.19;435058;1256;108747;-40
2023/08/02 13:13:23;;;;;;;3.00;1.20;;;;;;;25.19;46.46;97485.02;435390;1257;98015;-42
2023/08/02 13:53:51;;;;;;;6.30;1.30;;;;;;;24.49;47.18;97438.57;435115;1254;109185;-43
2023/08/02 14:04:00;;;;;;;1.10;1.00;;;;;;;24.62;46.79;97437.16;435426;1254;98817;-41
2023/08/02 14:14:08;;;;;;;3.00;1.30;;;;;;;24.76;46.64;97422.84;435191;1257;112068;-40
2023/08/02 14:24:15;;;;;;;1.50;0.70;;;;;;;24.94;46.10;97408.65;435477;1256;108760;-42
2023/08/02 14:34:25;;;;;;;2.70;1.00;;;;;;;25.00;45.30;97397.97;435175;1255;99215;-43
2023/08/02 14:44:31;;;;;;;1.60;0.60;;;;;;;24.94;44.96;97396.42;435308;1253;108652;-42
2023/08/02 15:04:46;;;;;;;2.90;1.20;;;;;;;24.94;44.53;97380.44;435365;1256;111390;-42
2023/08/02 15:14:54;;;;;;;4.00;1.20;;;;;;;24.73;43.91;97373.88;434878;1252;108681;-42
2023/08/02 15:25:01;;;;;;;5.40;1.30;;;;;;;24.63;44.19;97371.80;435117;1253;99250;-41
2023/08/02 15:35:09;;;;;;;3.20;0.70;;;;;;;24.64;43.93;97357.77;435274;1252;108534;-44
2023/08/02 15:45:16;;;;;;;2.00;1.20;;;;;;;24.46;44.07;97356.29;435350;1254;99221;-42
2023/08/02 15:55:23;;;;;;;6.30;1.10;;;;;;;24.37;44.38;97350.73;435184;1254;111255;-42
2023/08/02 16:05:31;;;;;;;1.70;1.20;;;;;;;24.31;44.28;97309.85;435310;1253;107516;-42
2023/08/02 16:15:38;;;;;;;4.50;1.40;;;;;;;24.17;44.27;97301.63;435146;1255;99812;-41
2023/08/02 16:25:45;;;;;;;9.50;1.30;;;;;;;23.83;44.28;97298.03;435271;1256;107749;-41
2023/08/02 16:35:52;;;;;;;6.30;1.10;;;;;;;23.63;44.65;97288.97;434942;1256;99220;-42
2023/08/02 16:45:56;;;;;;;3.00;1.40;;;;;;;23.57;45.18;97299.30;435329;1256;112304;-42
2023/08/02 16:56:03;;;;;;;3.10;1.70;;;;;;;23.51;45.25;97301.74;435130;1254;108133;-41
2023/08/02 17:06:09;;;;;;;2.50;1.30;;;;;;;23.50;45.66;97301.89;435265;1256;99226;-42
2023/08/02 17:16:16;;;;;;;4.70;1.90;;;;;;;23.18;45.72;97292.94;435202;1254;108496;-43
2023/08/02 17:26:23;;;;;;;2.80;1.70;;;;;;;22.89;46.19;97271.86;435121;1256;99225;-42
2023/08/02 17:36:32;;;;;;;4.80;2.20;;;;;;;22.65;46.70;97268.55;435096;1256;113242;-41
2023/08/02 17:46:39;;;;;;;3.10;2.20;;;;;;;22.33;47.33;97263.67;435368;1256;107978;-44
2023/08/02 18:16:57;;;;;;;5.10;2.20;;;;;;;21.46;49.46;97248.98;435199;1254;99240;-42
2023/08/02 18:27:04;;;;;;;2.90;1.80;;;;;;;21.24;50.12;97246.79;435247;1255;112835;-42
2023/08/02 18:37:11;;;;;;;5.00;1.80;;;;;;;21.12;50.87;97249.44;435129;1257;108352;-43
2023/08/02 19:07:29;;;;;;;5.80;3.30;;;;;;;20.85;52.09;97246.65;435131;1252;99224;-42
2023/08/02 19:17:39;;;;;;;4.30;2.80;;;;;;;20.73;52.48;97245.60;435197;1256;112042;-42
2023/08/02 19:37:53;;;;;;;6.10;3.20;;;;;;;20.55;53.54;97242.70;435213;1256;99110;-42
2023/08/02 19:48:02;;;;;;;8.30;3.40;;;;;;;20.45;53.73;97235.00;435225;1254;108597;-42
2023/08/02 19:58:08;;;;;;;5.00;3.20;;;;;;;20.39;54.15;97226.10;435079;1256;99251;-40
2023/08/02 20:08:16;;;;;;;5.50;2.90;;;;;;;20.33;54.61;97216.92;435116;1256;111779;-41
2023/08/02 20:28:36;;;;;;;4.20;2.60;;;;;;;20.23;55.48;97214.29;435187;1252;98350;-41
2023/08/02 20:38:44;;;;;;;5.90;2.90;;;;;;;20.18;56.03;97204.88;435189;1257;107475;-40
2023/08/02 20:48:54;;;;;;;5.80;3.30;;;;;;;20.06;56.26;97191.83;435189;1254;99221;-40
2023/08/02 20:59:02;;;;;;;6.20;2.90;;;;;;;19.87;57.03;97192.83;435139;1254;109677;-41
2023/08/02 21:09:09;;;;;;;4.40;3.20;;;;;;;19.68;57.42;97182.17;435383;1256;109414;-41
2023/08/02 21:19:17;;;;;;;7.80;3.50;;;;;;;19.49;58.08;97167.92;434997;1254;97969;-42
2023/08/02 21:29:25;;;;;;;5.50;3.10;;;;;;;19.34;58.76;97166.94;435175;1254;107467;-42
2023/08/02 21:39:43;;;;;;;4.50;2.80;;;;;;;19.23;59.52;97173.55;435101;1254;99233;-42
2023/08/02 21:59:57;;;;;;;9.60;4.00;;;;;;;19.01;60.24;97179.14;435061;1254;107520;-42
2023/08/02 22:10:04;;;;;;;7.20;4.00;;;;;;;18.87;60.95;97176.57;435079;1254;99234;-43
2023/08/02 22:20:09;;;;;;;11.60;4.00;;;;;;;18.77;61.33;97171.55;434979;1257;108208;-42
2023/08/02 22:30:16;;;;;;;10.20;4.30;;;;;;;18.71;61.68;97178.88;435026;1266;99224;-42
2023/08/02 22:40:24;;;;;;;11.30;5.80;;;;;;;18.71;62.17;97169.68;435221;1267;112076;-41
2023/08/02 22:50:29;;;;;;;7.70;3.20;;;;;;;18.66;62.51;97161.13;434995;1257;108606;-42
2023/08/02 23:00:55;;;;;;;7.80;4.30;;;;;;;18.63;62.58;97174.60;435117;1254;99221;-42
2023/08/02 23:11:03;;;;;;;6.70;4.00;;;;;;;18.53;62.99;97182.14;435150;1256;108199;-42
2023/08/02 23:21:11;;;;;;;7.50;3.80;;;;;;;18.46;63.22;97188.38;434975;1257;99221;-41
2023/08/02 23:31:21;;;;;;;9.50;3.70;;;;;;;18.44;63.71;97182.39;435155;1257;111402;-42
2023/08/02 23:41:27;;;;;;;5.30;3.70;;;;;;;18.43;64.28;97164.14;435129;1254;107553;-42
